createdAt,value
2023-02-08T00:00:02.004Z,102215.09
2023-02-08T00:04:08.749Z,102218.72
2023-02-08T00:08:11.775Z,102221.28
2023-02-08T00:12:14.853Z,102229.38
2023-02-08T00:16:18.503Z,102231.16
2023-02-08T00:20:23.434Z,102224.22
2023-02-08T00:24:26.395Z,102226.50
2023-02-08T00:28:29.438Z,102233.31
2023-02-08T00:32:32.576Z,102231.66
2023-02-08T00:36:37.063Z,102233.63
2023-02-08T00:40:44.323Z,102222.13
2023-02-08T00:44:47.398Z,102223.19
2023-02-08T00:48:53.103Z,102237.81
2023-02-08T00:52:57.520Z,102235.06
2023-02-08T00:57:01.614Z,102235.97
2023-02-08T01:01:15.078Z,102236.28
2023-02-08T01:05:19.321Z,102234.16
2023-02-08T01:09:23.774Z,102234.91
2023-02-08T01:13:29.674Z,102233.28
2023-02-08T01:17:32.802Z,102240.06
2023-02-08T01:21:39.338Z,102248.75
2023-02-08T01:25:43.826Z,102252.97
2023-02-08T01:29:46.812Z,102254.50
2023-02-08T01:33:50.435Z,102250.56
2023-02-08T01:37:53.422Z,102250.00
2023-02-08T01:41:57.844Z,102249.69
2023-02-08T01:46:00.995Z,102250.13
2023-02-08T01:50:08.230Z,102260.91
2023-02-08T01:54:15.258Z,102254.72
2023-02-08T01:58:21.128Z,102258.03
2023-02-08T02:02:25.277Z,102242.28
2023-02-08T02:06:34.683Z,102239.25
2023-02-08T02:10:53.879Z,102249.09
2023-02-08T02:14:58.566Z,102253.84
2023-02-08T02:19:01.618Z,102250.06
2023-02-08T02:23:48.200Z,102261.84
2023-02-08T02:28:15.253Z,102268.50
2023-02-08T02:32:38.701Z,102271.25
2023-02-08T02:36:54.030Z,102266.09
2023-02-08T02:41:04.780Z,102261.56
2023-02-08T02:45:20.436Z,102255.31
2023-02-08T02:49:30.250Z,102262.78
2023-02-08T02:53:43.122Z,102258.84
2023-02-08T02:57:49.052Z,102254.44
2023-02-08T03:01:54.611Z,102257.75
2023-02-08T03:06:04.176Z,102268.81
2023-02-08T03:10:19.154Z,102275.78
2023-02-08T03:14:35.118Z,102266.09
2023-02-08T03:18:52.696Z,102266.56
2023-02-08T03:23:03.565Z,102267.00
2023-02-08T03:27:12.286Z,102271.25
2023-02-08T03:31:24.144Z,102272.75
2023-02-08T03:35:32.154Z,102277.59
2023-02-08T03:39:39.477Z,102273.97
2023-02-08T03:43:46.938Z,102278.81
2023-02-08T03:47:52.900Z,102274.41
2023-02-08T03:51:59.144Z,102265.47
2023-02-08T03:56:08.148Z,102274.53
2023-02-08T04:00:14.571Z,102289.97
2023-02-08T04:04:20.639Z,102288.19
2023-02-08T04:08:23.870Z,102291.50
2023-02-08T04:12:28.562Z,102302.13
2023-02-08T04:16:31.553Z,102296.06
2023-02-08T04:20:34.899Z,102283.94
2023-02-08T04:24:37.851Z,102277.88
2023-02-08T04:28:42.484Z,102279.69
2023-02-08T04:32:45.484Z,102284.84
2023-02-08T04:36:48.541Z,102294.22
2023-02-08T04:40:51.624Z,102278.78
2023-02-08T04:44:56.273Z,102281.19
2023-02-08T04:48:59.224Z,102277.56
2023-02-08T04:53:02.333Z,102273.16
2023-02-08T04:57:05.409Z,102281.50
2023-02-08T05:01:11.362Z,102287.06
2023-02-08T05:05:14.382Z,102283.28
2023-02-08T05:09:17.499Z,102295.09
2023-02-08T05:13:20.529Z,102300.09
2023-02-08T05:17:25.095Z,102306.59
2023-02-08T05:21:28.330Z,102311.41
2023-02-08T05:25:31.712Z,102304.16
2023-02-08T05:29:34.688Z,102305.66
2023-02-08T05:33:39.220Z,102315.22
2023-02-08T05:37:42.154Z,102316.28
2023-02-08T05:41:45.342Z,102319.59
2023-02-08T05:45:48.288Z,102336.53
2023-02-08T05:49:52.779Z,102331.38
2023-02-08T05:53:55.781Z,102334.69
2023-02-08T05:57:58.816Z,102337.09
2023-02-08T06:02:01.804Z,102338.63
2023-02-08T06:06:07.063Z,102344.38
2023-02-08T06:10:11.561Z,102350.69
2023-02-08T06:14:14.797Z,102352.78
2023-02-08T06:18:18.868Z,102362.75
2023-02-08T06:22:23.506Z,102376.53
2023-02-08T06:26:26.492Z,102367.16
2023-02-08T06:30:29.937Z,102370.94
2023-02-08T06:34:33.135Z,102376.09
2023-02-08T06:38:37.607Z,102377.00
2023-02-08T06:42:40.886Z,102380.16
2023-02-08T06:46:43.944Z,102380.00
2023-02-08T06:50:46.916Z,102377.13
2023-02-08T06:54:51.398Z,102356.53
2023-02-08T06:58:54.417Z,102346.25
2023-02-08T07:02:57.498Z,102340.19
2023-02-08T07:07:00.529Z,102343.38
2023-02-08T07:11:09.405Z,102337.47
2023-02-08T07:15:13.740Z,102346.25
2023-02-08T07:19:16.840Z,102358.38
2023-02-08T07:23:20.018Z,102358.69
2023-02-08T07:27:26.033Z,102379.59
2023-02-08T07:31:29.156Z,102371.09
2023-02-08T07:35:32.275Z,102375.06
2023-02-08T07:39:35.321Z,102375.38
2023-02-08T07:43:41.158Z,102384.47
2023-02-08T07:47:44.159Z,102376.91
2023-02-08T07:51:47.280Z,102382.38
2023-02-08T07:55:50.233Z,102381.44
2023-02-08T07:59:54.649Z,102389.66
2023-02-08T08:03:57.694Z,102402.38
2023-02-08T08:08:00.832Z,102397.25
2023-02-08T08:12:04.294Z,102394.72
2023-02-08T08:16:08.946Z,102394.56
2023-02-08T08:20:12.740Z,102389.41
2023-02-08T08:24:15.975Z,102392.16
2023-02-08T08:28:19.104Z,102392.47
2023-02-08T08:32:23.619Z,102394.28
2023-02-08T08:36:26.648Z,102391.25
2023-02-08T08:40:29.834Z,102373.38
2023-02-08T08:44:33.043Z,102392.19
2023-02-08T08:48:38.842Z,102397.47
2023-02-08T08:52:42.776Z,102397.19
2023-02-08T08:56:46.199Z,102405.22
2023-02-08T09:00:49.201Z,102392.94
2023-02-08T09:04:53.642Z,102406.13
2023-02-08T09:08:56.616Z,102415.81
2023-02-08T09:13:00.243Z,102427.66
2023-02-08T09:17:03.304Z,102425.53
2023-02-08T09:21:09.290Z,102432.16
2023-02-08T09:25:12.470Z,102438.22
2023-02-08T09:29:15.669Z,102445.47
2023-02-08T09:33:18.636Z,102425.88
2023-02-08T09:37:23.050Z,102438.75
2023-02-08T09:41:42.648Z,102443.47
2023-02-08T09:46:00.284Z,102454.66
2023-02-08T09:50:11.827Z,102452.94
2023-02-08T09:54:19.950Z,102449.13
2023-02-08T09:58:27.446Z,102458.53
2023-02-08T10:02:33.151Z,102442.84
2023-02-08T10:06:36.183Z,102451.34
2023-02-08T10:10:52.108Z,102451.00
2023-02-08T10:15:07.224Z,102440.97
2023-02-08T10:19:24.964Z,102450.63
2023-02-08T10:23:39.266Z,102451.06
2023-02-08T10:27:56.314Z,102440.81
2023-02-08T10:32:16.018Z,102444.66
2023-02-08T10:36:22.571Z,102448.59
2023-02-08T10:40:35.756Z,102444.59
2023-02-08T10:44:54.997Z,102445.94
2023-02-08T10:49:08.236Z,102447.28
2023-02-08T10:53:16.813Z,102436.22
2023-02-08T10:57:25.541Z,102433.41
2023-02-08T11:01:30.434Z,102430.34
2023-02-08T11:05:35.182Z,102433.53
2023-02-08T11:09:38.271Z,102435.41
2023-02-08T11:13:43.604Z,102433.34
2023-02-08T11:17:48.753Z,102428.19
2023-02-08T11:21:53.269Z,102430.53
2023-02-08T11:26:14.142Z,102414.78
2023-02-08T11:30:23.489Z,102407.53
2023-02-08T11:34:29.666Z,102425.72
2023-02-08T11:38:35.359Z,102414.03
2023-02-08T11:42:44.366Z,102426.38
2023-02-08T11:46:49.584Z,102402.00
2023-02-08T11:51:00.131Z,102400.97
2023-02-08T11:55:24.675Z,102396.97
2023-02-08T11:59:29.190Z,102389.63
2023-02-08T12:03:37.310Z,102383.41
2023-02-08T12:08:05.710Z,102374.84
2023-02-08T12:12:21.997Z,102377.47
2023-02-08T12:16:46.703Z,102376.94
2023-02-08T12:20:57.358Z,102373.44
2023-02-08T12:25:20.065Z,102367.63
2023-02-08T12:29:47.470Z,102355.03
2023-02-08T12:34:00.019Z,102347.28
2023-02-08T12:38:39.889Z,102344.69
2023-02-08T12:42:55.904Z,102328.63
2023-02-08T12:47:10.189Z,102342.34
2023-02-08T12:51:25.635Z,102331.97
2023-02-08T12:55:32.250Z,102338.31
2023-02-08T12:59:41.527Z,102332.75
2023-02-08T13:03:49.332Z,102318.22
2023-02-08T13:08:02.780Z,102316.69
2023-02-08T13:12:12.872Z,102324.94
2023-02-08T13:16:22.648Z,102318.34
2023-02-08T13:20:34.668Z,102307.16
2023-02-08T13:24:41.409Z,102317.66
2023-02-08T13:28:48.449Z,102312.06
2023-02-08T13:32:54.419Z,102304.66
2023-02-08T13:37:00.641Z,102295.31
2023-02-08T13:41:07.667Z,102292.84
2023-02-08T13:45:23.795Z,102296.03
2023-02-08T13:49:55.044Z,102294.19
2023-02-08T13:54:12.604Z,102296.53
2023-02-08T13:59:01.515Z,102290.81
2023-02-08T14:03:22.973Z,102290.25
2023-02-08T14:07:42.044Z,102287.78
2023-02-08T14:11:49.695Z,102284.84
2023-02-08T14:16:30.773Z,102278.59
2023-02-08T14:20:40.016Z,102278.84
2023-02-08T14:24:48.310Z,102279.09
2023-02-08T14:28:56.887Z,102278.53
2023-02-08T14:33:19.789Z,102271.78
2023-02-08T14:37:31.176Z,102275.94
2023-02-08T14:41:50.161Z,102275.19
2023-02-08T14:45:54.634Z,102277.09
2023-02-08T14:50:06.705Z,102276.75
2023-02-08T14:54:20.935Z,102280.13
2023-02-08T14:58:30.773Z,102280.13
2023-02-08T15:02:35.293Z,102280.38
2023-02-08T15:07:11.161Z,102281.00
2023-02-08T15:11:22.608Z,102278.53
2023-02-08T15:15:32.664Z,102281.25
2023-02-08T15:19:38.804Z,102277.22
2023-02-08T15:23:41.929Z,102290.44
2023-02-08T15:27:49.064Z,102286.28
2023-02-08T15:31:54.471Z,102281.09
2023-02-08T15:36:00.102Z,102288.09
2023-02-08T15:40:04.667Z,102287.69
2023-02-08T15:44:18.613Z,102288.56
2023-02-08T15:48:23.167Z,102281.09
2023-02-08T15:52:32.975Z,102295.78
2023-02-08T15:56:42.368Z,102295.13
2023-02-08T16:00:47.359Z,102294.13
2023-02-08T16:04:52.321Z,102290.59
2023-02-08T16:08:59.415Z,102287.88
2023-02-08T16:13:05.599Z,102299.94
2023-02-08T16:17:39.518Z,102299.91
2023-02-08T16:21:44.104Z,102293.22
2023-02-08T16:25:49.202Z,102302.25
2023-02-08T16:29:52.448Z,102301.97
2023-02-08T16:34:00.973Z,102294.94
2023-02-08T16:38:10.130Z,102299.22
2023-02-08T16:42:32.055Z,102302.66
2023-02-08T16:46:45.126Z,102307.91
2023-02-08T16:50:48.112Z,102302.00
2023-02-08T16:54:52.536Z,102301.03
2023-02-08T16:58:56.032Z,102304.84
2023-02-08T17:02:59.195Z,102307.84
2023-02-08T17:07:02.334Z,102295.94
2023-02-08T17:11:06.786Z,102304.03
2023-02-08T17:15:10.224Z,102298.59
2023-02-08T17:19:17.946Z,102302.63
2023-02-08T17:23:21.356Z,102293.69
2023-02-08T17:27:26.773Z,102296.03
2023-02-08T17:31:30.457Z,102300.97
2023-02-08T17:35:34.451Z,102307.47
2023-02-08T17:39:37.400Z,102318.00
2023-02-08T17:43:42.011Z,102311.53
2023-02-08T17:47:45.024Z,102307.78
2023-02-08T17:51:48.080Z,102313.00
2023-02-08T17:55:51.216Z,102316.91
2023-02-08T17:59:55.842Z,102316.66
2023-02-08T18:04:01.077Z,102320.03
2023-02-08T18:08:04.370Z,102308.38
2023-02-08T18:12:07.953Z,102314.72
2023-02-08T18:16:14.505Z,102313.31
2023-02-08T18:20:18.200Z,102311.25
2023-02-08T18:24:21.212Z,102309.19
2023-02-08T18:28:24.436Z,102310.22
2023-02-08T18:32:29.744Z,102304.38
2023-02-08T18:36:32.711Z,102319.56
2023-02-08T18:40:35.744Z,102300.13
2023-02-08T18:44:39.513Z,102301.41
2023-02-08T18:48:44.689Z,102306.84
2023-02-08T18:52:50.013Z,102296.75
2023-02-08T18:56:55.925Z,102285.84
2023-02-08T19:01:06.233Z,102295.19
2023-02-08T19:05:10.798Z,102297.50
2023-02-08T19:09:14.002Z,102298.16
2023-02-08T19:13:17.033Z,102291.00
2023-02-08T19:17:20.449Z,102278.59
2023-02-08T19:21:25.204Z,102279.09
2023-02-08T19:25:28.187Z,102287.38
2023-02-08T19:29:33.279Z,102286.34
2023-02-08T19:33:36.567Z,102291.38
2023-02-08T19:37:42.454Z,102282.72
2023-02-08T19:41:46.480Z,102282.56
2023-02-08T19:45:49.573Z,102288.38
2023-02-08T19:49:52.670Z,102294.84
2023-02-08T19:53:58.123Z,102294.59
2023-02-08T19:58:01.140Z,102288.22
2023-02-08T20:02:04.860Z,102287.03
2023-02-08T20:06:15.310Z,102283.03
2023-02-08T20:10:19.961Z,102280.81
2023-02-08T20:14:23.100Z,102283.91
2023-02-08T20:18:26.616Z,102282.59
2023-02-08T20:22:29.617Z,102289.31
2023-02-08T20:26:34.111Z,102287.22
2023-02-08T20:30:37.147Z,102288.47
2023-02-08T20:34:47.455Z,102301.50
2023-02-08T20:38:59.473Z,102294.63
2023-02-08T20:43:03.868Z,102294.06
2023-02-08T20:47:07.022Z,102303.38
2023-02-08T20:51:12.419Z,102304.13
2023-02-08T20:55:15.425Z,102309.94
2023-02-08T20:59:20.039Z,102304.47
2023-02-08T21:03:23.373Z,102299.31
2023-02-08T21:07:26.739Z,102299.97
2023-02-08T21:11:31.397Z,102298.78
2023-02-08T21:15:36.192Z,102294.50
2023-02-08T21:19:40.021Z,102303.03
2023-02-08T21:23:44.336Z,102294.22
2023-02-08T21:27:47.362Z,102303.75
2023-02-08T21:31:54.414Z,102294.66
2023-02-08T21:35:58.308Z,102296.19
2023-02-08T21:40:01.416Z,102288.03
2023-02-08T21:44:08.242Z,102274.41
2023-02-08T21:48:12.795Z,102279.44
2023-02-08T21:52:41.654Z,102276.56
2023-02-08T21:56:44.736Z,102276.28
2023-02-08T22:00:47.705Z,102274.19
2023-02-08T22:04:53.855Z,102273.00
2023-02-08T22:08:56.846Z,102265.72
2023-02-08T22:13:00.296Z,102265.19
2023-02-08T22:17:03.368Z,102263.84
2023-02-08T22:21:08.363Z,102263.84
2023-02-08T22:25:11.387Z,102258.41
2023-02-08T22:29:14.462Z,102253.97
2023-02-08T22:33:17.622Z,102253.72
2023-02-08T22:37:22.058Z,102249.81
2023-02-08T22:41:25.116Z,102258.66
2023-02-08T22:45:28.201Z,102256.56
2023-02-08T22:49:31.213Z,102244.63
2023-02-08T22:53:35.853Z,102246.19
2023-02-08T22:57:38.967Z,102241.50
2023-02-08T23:01:42.202Z,102243.03
2023-02-08T23:05:47.822Z,102239.25
2023-02-08T23:09:52.340Z,102234.84
2023-02-08T23:13:55.723Z,102236.22
2023-02-08T23:17:59.290Z,102240.34
2023-02-08T23:22:02.276Z,102231.41
2023-02-08T23:26:07.795Z,102225.97
2023-02-08T23:30:11.936Z,102227.34
2023-02-08T23:34:15.090Z,102224.34
2023-02-08T23:38:18.105Z,102226.78
2023-02-08T23:42:28.457Z,102231.19
2023-02-08T23:46:31.743Z,102226.53
2023-02-08T23:50:35.165Z,102218.03
2023-02-08T23:54:38.490Z,102215.19
2023-02-08T23:58:43.757Z,102210.50
